createdAt,value
2023-02-12T00:00:26.584Z,62
2023-02-12T00:01:27.269Z,59
2023-02-12T00:02:26.613Z,64
2023-02-12T00:03:27.217Z,65
2023-02-12T00:04:27.097Z,73
2023-02-12T00:05:26.431Z,77
2023-02-12T00:06:26.522Z,66
2023-02-12T00:07:26.532Z,73
2023-02-12T00:08:26.957Z,70
2023-02-12T00:09:26.947Z,57
2023-02-12T00:10:26.456Z,64
2023-02-12T00:11:26.472Z,63
2023-02-12T00:12:26.479Z,50
2023-02-12T00:13:26.481Z,53
2023-02-12T00:14:26.598Z,49
2023-02-12T00:15:27.138Z,58
2023-02-12T00:16:26.537Z,55
2023-02-12T00:17:27.094Z,55
2023-02-12T00:18:26.428Z,56
2023-02-12T00:19:27.008Z,54
2023-02-12T00:20:27.322Z,51
2023-02-12T00:21:26.563Z,51
2023-02-12T00:22:27.079Z,50
2023-02-12T00:23:26.477Z,51
2023-02-12T00:24:26.793Z,60
2023-02-12T00:25:26.486Z,64
2023-02-12T00:26:26.513Z,64
2023-02-12T00:27:26.515Z,63
2023-02-12T00:28:26.809Z,65
2023-02-12T00:29:27.358Z,64
2023-02-12T00:30:26.581Z,69
2023-02-12T00:31:26.810Z,65
2023-02-12T00:32:26.447Z,63
2023-02-12T00:33:26.558Z,55
2023-02-12T00:34:26.547Z,53
2023-02-12T00:35:27.329Z,52
2023-02-12T00:36:26.486Z,50
2023-02-12T00:37:26.978Z,55
2023-02-12T00:38:26.472Z,58
2023-02-12T00:39:27.090Z,50
2023-02-12T00:40:27.072Z,55
2023-02-12T00:41:27.118Z,58
2023-02-12T00:42:27.214Z,63
2023-02-12T00:43:27.259Z,52
2023-02-12T00:44:27.122Z,52
2023-02-12T00:45:26.446Z,48
2023-02-12T00:46:27.159Z,52
2023-02-12T00:47:26.605Z,55
2023-02-12T00:48:27.290Z,49
2023-02-12T00:49:26.544Z,55
2023-02-12T00:50:28.446Z,58
2023-02-12T00:51:26.460Z,53
2023-02-12T00:52:26.583Z,57
2023-02-12T00:53:27.003Z,54
2023-02-12T00:54:26.880Z,51
2023-02-12T00:55:27.263Z,59
2023-02-12T00:56:26.461Z,51
2023-02-12T00:57:27.147Z,51
2023-02-12T00:58:26.551Z,62
2023-02-12T00:59:26.928Z,86
2023-02-12T01:00:26.457Z,106
2023-02-12T01:01:27.128Z,76
2023-02-12T01:02:26.530Z,61
2023-02-12T01:03:26.546Z,64
2023-02-12T01:04:26.540Z,53
2023-02-12T01:05:26.703Z,54
2023-02-12T01:06:25.254Z,60
2023-02-12T01:07:26.468Z,62
2023-02-12T01:08:26.682Z,64
2023-02-12T01:09:26.432Z,62
2023-02-12T01:10:27.305Z,67
2023-02-12T01:11:26.471Z,63
2023-02-12T01:12:26.853Z,64
2023-02-12T01:13:26.843Z,64
2023-02-12T01:14:26.500Z,56
2023-02-12T01:15:26.457Z,54
2023-02-12T01:16:27.074Z,47
2023-02-12T01:17:27.364Z,55
2023-02-12T01:18:27.038Z,53
2023-02-12T01:19:27.078Z,60
2023-02-12T01:20:27.038Z,51
2023-02-12T01:21:26.546Z,58
2023-02-12T01:22:26.450Z,59
2023-02-12T01:23:26.488Z,51
2023-02-12T01:24:27.149Z,49
2023-02-12T01:25:27.263Z,47
2023-02-12T01:26:27.195Z,53
2023-02-12T01:27:26.500Z,53
2023-02-12T01:28:25.387Z,53
2023-02-12T01:29:27.026Z,55
2023-02-12T01:30:26.501Z,56
2023-02-12T01:31:27.063Z,50
2023-02-12T01:32:26.715Z,51
2023-02-12T01:33:26.534Z,53
2023-02-12T01:34:26.500Z,51
2023-02-12T01:35:26.436Z,49
2023-02-12T01:36:26.484Z,49
2023-02-12T01:37:26.440Z,47
2023-02-12T01:38:27.382Z,55
2023-02-12T01:39:26.724Z,49
2023-02-12T01:40:27.120Z,45
2023-02-12T01:41:26.519Z,47
2023-02-12T01:42:26.909Z,54
2023-02-12T01:43:26.989Z,55
2023-02-12T01:44:27.242Z,53
2023-02-12T01:45:26.942Z,60
2023-02-12T01:46:26.986Z,52
2023-02-12T01:47:26.771Z,49
2023-02-12T01:48:26.700Z,54
2023-02-12T01:49:26.502Z,50
2023-02-12T01:50:25.916Z,43
2023-02-12T01:51:26.462Z,53
2023-02-12T01:52:26.537Z,57
2023-02-12T01:53:26.846Z,50
2023-02-12T01:54:26.788Z,50
2023-02-12T01:55:26.832Z,45
2023-02-12T01:56:26.893Z,44
2023-02-12T01:57:26.455Z,56
2023-02-12T01:58:26.443Z,52
2023-02-12T01:59:26.800Z,55
2023-02-12T02:00:27.176Z,49
2023-02-12T02:01:26.482Z,54
2023-02-12T02:02:26.582Z,50
2023-02-12T02:03:27.232Z,53
2023-02-12T02:04:27.285Z,44
2023-02-12T02:05:27.206Z,45
2023-02-12T02:06:26.440Z,50
2023-02-12T02:07:26.894Z,47
2023-02-12T02:08:26.912Z,47
2023-02-12T02:09:26.442Z,48
2023-02-12T02:10:26.530Z,54
2023-02-12T02:11:26.459Z,52
2023-02-12T02:12:27.147Z,51
2023-02-12T02:13:26.431Z,51
2023-02-12T02:14:27.412Z,50
2023-02-12T02:15:26.441Z,54
2023-02-12T02:16:26.552Z,47
2023-02-12T02:17:27.196Z,50
2023-02-12T02:18:26.500Z,54
2023-02-12T02:19:26.450Z,59
2023-02-12T02:20:26.442Z,55
2023-02-12T02:21:27.378Z,53
2023-02-12T02:22:26.568Z,64
2023-02-12T02:23:26.466Z,50
2023-02-12T02:24:26.719Z,55
2023-02-12T02:25:27.192Z,49
2023-02-12T02:26:27.082Z,50
2023-02-12T02:27:27.182Z,49
2023-02-12T02:28:27.080Z,50
2023-02-12T02:29:27.029Z,54
2023-02-12T02:30:26.988Z,52
2023-02-12T02:31:26.598Z,46
2023-02-12T02:32:26.466Z,44
2023-02-12T02:33:26.517Z,49
2023-02-12T02:34:26.441Z,51
2023-02-12T02:35:26.440Z,62
2023-02-12T02:36:26.978Z,61
2023-02-12T02:37:26.538Z,64
2023-02-12T02:38:26.526Z,62
2023-02-12T02:39:27.099Z,60
2023-02-12T02:40:26.992Z,62
2023-02-12T02:41:26.458Z,59
2023-02-12T02:42:26.434Z,61
2023-02-12T02:43:27.136Z,54
2023-02-12T02:44:27.089Z,63
2023-02-12T02:45:26.422Z,62
2023-02-12T02:46:26.576Z,63
2023-02-12T02:47:27.604Z,59
2023-02-12T02:48:26.447Z,69
2023-02-12T02:49:28.537Z,64
2023-02-12T02:50:27.569Z,64
2023-02-12T02:51:26.512Z,61
2023-02-12T02:52:27.051Z,65
2023-02-12T02:53:27.014Z,66
2023-02-12T02:54:26.535Z,56
2023-02-12T02:55:26.440Z,67
2023-02-12T02:56:27.315Z,58
2023-02-12T02:57:26.052Z,60
2023-02-12T02:58:26.450Z,68
2023-02-12T02:59:26.499Z,68
2023-02-12T03:00:27.131Z,67
2023-02-12T03:01:27.055Z,67
2023-02-12T03:02:26.998Z,66
2023-02-12T03:03:27.062Z,64
2023-02-12T03:04:26.916Z,64
2023-02-12T03:05:26.979Z,66
2023-02-12T03:06:26.440Z,69
2023-02-12T03:07:27.198Z,67
2023-02-12T03:08:26.730Z,71
2023-02-12T03:09:27.063Z,70
2023-02-12T03:10:27.096Z,72
2023-02-12T03:11:27.301Z,73
2023-02-12T03:12:26.446Z,76
2023-02-12T03:13:26.989Z,72
2023-02-12T03:14:26.995Z,73
2023-02-12T03:15:27.238Z,79
2023-02-12T03:16:26.606Z,78
2023-02-12T03:17:26.722Z,76
2023-02-12T03:18:26.449Z,73
2023-02-12T03:19:26.495Z,79
2023-02-12T03:20:26.659Z,78
2023-02-12T03:21:26.654Z,79
2023-02-12T03:22:26.445Z,79
2023-02-12T03:23:26.542Z,84
2023-02-12T03:24:26.844Z,86
2023-02-12T03:25:26.449Z,81
2023-02-12T03:26:26.459Z,83
2023-02-12T03:27:27.027Z,84
2023-02-12T03:28:26.940Z,79
2023-02-12T03:29:27.213Z,89
2023-02-12T03:30:26.717Z,88
2023-02-12T03:31:26.522Z,87
2023-02-12T03:32:26.932Z,94
2023-02-12T03:33:26.460Z,97
2023-02-12T03:34:26.515Z,95
2023-02-12T03:35:27.106Z,98
2023-02-12T03:36:26.904Z,94
2023-02-12T03:37:27.149Z,97
2023-02-12T03:38:26.495Z,96
2023-02-12T03:39:26.462Z,97
2023-02-12T03:40:26.461Z,101
2023-02-12T03:41:27.169Z,100
2023-02-12T03:42:26.433Z,107
2023-02-12T03:43:26.017Z,110
2023-02-12T03:44:26.579Z,110
2023-02-12T03:45:27.063Z,100
2023-02-12T03:46:26.793Z,100
2023-02-12T03:47:27.089Z,100
2023-02-12T03:48:26.493Z,106
2023-02-12T03:49:26.464Z,105
2023-02-12T03:50:26.434Z,106
2023-02-12T03:51:27.118Z,103
2023-02-12T03:52:26.996Z,104
2023-02-12T03:53:26.804Z,108
2023-02-12T03:54:26.486Z,100
2023-02-12T03:55:26.458Z,105
2023-02-12T03:56:27.004Z,106
2023-02-12T03:57:27.007Z,99
2023-02-12T03:58:26.438Z,101
2023-02-12T03:59:27.376Z,107
2023-02-12T04:00:27.156Z,95
2023-02-12T04:01:27.126Z,105
2023-02-12T04:02:26.428Z,102
2023-02-12T04:03:26.547Z,101
2023-02-12T04:04:26.590Z,103
2023-02-12T04:05:26.501Z,97
2023-02-12T04:06:26.904Z,106
2023-02-12T04:07:26.788Z,94
2023-02-12T04:08:26.450Z,89
2023-02-12T04:09:26.899Z,101
2023-02-12T04:10:26.821Z,108
2023-02-12T04:11:26.730Z,104
2023-02-12T04:12:26.516Z,96
2023-02-12T04:13:26.456Z,75
2023-02-12T04:14:27.252Z,90
2023-02-12T04:15:26.579Z,82
2023-02-12T04:16:26.936Z,89
2023-02-12T04:17:26.476Z,85
2023-02-12T04:18:27.123Z,99
2023-02-12T04:19:27.058Z,88
2023-02-12T04:20:26.742Z,83
2023-02-12T04:21:26.514Z,79
2023-02-12T04:22:26.443Z,84
2023-02-12T04:23:27.214Z,81
2023-02-12T04:24:27.062Z,70
2023-02-12T04:25:26.859Z,77
2023-02-12T04:26:27.115Z,71
2023-02-12T04:27:26.442Z,74
2023-02-12T04:28:26.778Z,72
2023-02-12T04:29:26.838Z,83
2023-02-12T04:30:26.552Z,63
2023-02-12T04:31:26.994Z,66
2023-02-12T04:32:27.252Z,71
2023-02-12T04:33:26.521Z,74
2023-02-12T04:34:27.314Z,70
2023-02-12T04:35:26.946Z,81
2023-02-12T04:36:26.504Z,70
2023-02-12T04:37:27.238Z,76
2023-02-12T04:38:27.262Z,80
2023-02-12T04:39:26.430Z,72
2023-02-12T04:40:26.454Z,71
2023-02-12T04:41:26.873Z,84
2023-02-12T04:42:27.245Z,78
2023-02-12T04:43:26.626Z,76
2023-02-12T04:44:26.493Z,70
2023-02-12T04:45:26.461Z,70
2023-02-12T04:46:27.380Z,73
2023-02-12T04:47:26.857Z,73
2023-02-12T04:48:26.440Z,73
2023-02-12T04:49:25.695Z,72
2023-02-12T04:50:26.791Z,83
2023-02-12T04:51:27.217Z,85
2023-02-12T04:52:26.442Z,81
2023-02-12T04:53:26.993Z,79
2023-02-12T04:54:26.526Z,78
2023-02-12T04:55:26.473Z,75
2023-02-12T04:56:26.492Z,66
2023-02-12T04:57:26.465Z,81
2023-02-12T04:58:26.511Z,81
2023-02-12T04:59:26.498Z,84
2023-02-12T05:00:26.712Z,87
2023-02-12T05:01:26.509Z,80
2023-02-12T05:02:27.310Z,70
2023-02-12T05:03:27.093Z,70
2023-02-12T05:04:26.442Z,78
2023-02-12T05:05:26.975Z,82
2023-02-12T05:06:26.862Z,80
2023-02-12T05:07:26.502Z,73
2023-02-12T05:08:26.448Z,72
2023-02-12T05:09:26.448Z,66
2023-02-12T05:10:27.982Z,66
2023-02-12T05:11:27.144Z,73
2023-02-12T05:12:26.891Z,63
2023-02-12T05:13:27.098Z,74
2023-02-12T05:14:26.446Z,74
2023-02-12T05:15:27.132Z,64
2023-02-12T05:16:26.897Z,64
2023-02-12T05:17:26.836Z,66
2023-02-12T05:18:26.442Z,64
2023-02-12T05:19:26.896Z,68
2023-02-12T05:20:27.154Z,71
2023-02-12T05:21:26.452Z,67
2023-02-12T05:22:26.866Z,71
2023-02-12T05:23:26.434Z,73
2023-02-12T05:24:27.081Z,72
2023-02-12T05:25:26.551Z,71
2023-02-12T05:26:27.427Z,70
2023-02-12T05:27:26.983Z,55
2023-02-12T05:28:27.405Z,63
2023-02-12T05:29:26.494Z,78
2023-02-12T05:30:26.832Z,66
2023-02-12T05:31:26.629Z,66
2023-02-12T05:32:27.016Z,81
2023-02-12T05:33:26.443Z,82
2023-02-12T05:34:27.375Z,79
2023-02-12T05:35:27.211Z,67
2023-02-12T05:36:26.711Z,70
2023-02-12T05:37:26.448Z,77
2023-02-12T05:38:27.018Z,69
2023-02-12T05:39:26.426Z,68
2023-02-12T05:40:26.551Z,63
2023-02-12T05:41:27.033Z,66
2023-02-12T05:42:26.507Z,66
2023-02-12T05:43:27.026Z,73
2023-02-12T05:44:27.235Z,58
2023-02-12T05:45:26.962Z,60
2023-02-12T05:46:27.063Z,74
2023-02-12T05:47:26.444Z,65
2023-02-12T05:48:26.443Z,64
2023-02-12T05:49:26.667Z,71
2023-02-12T05:50:26.733Z,67
2023-02-12T05:51:26.505Z,59
2023-02-12T05:52:26.970Z,63
2023-02-12T05:53:26.991Z,69
2023-02-12T05:54:26.754Z,67
2023-02-12T05:55:26.477Z,67
2023-02-12T05:56:25.305Z,69
2023-02-12T05:57:27.276Z,66
2023-02-12T05:58:27.130Z,61
2023-02-12T05:59:26.436Z,58
2023-02-12T06:00:26.923Z,59
2023-02-12T06:01:26.455Z,60
2023-02-12T06:02:27.281Z,56
2023-02-12T06:03:26.868Z,58
2023-02-12T06:04:26.584Z,62
2023-02-12T06:05:26.653Z,63
2023-02-12T06:06:26.444Z,60
2023-02-12T06:07:26.513Z,64
2023-02-12T06:08:27.161Z,65
2023-02-12T06:09:26.987Z,63
2023-02-12T06:10:26.493Z,64
2023-02-12T06:11:26.983Z,60
2023-02-12T06:12:26.483Z,58
2023-02-12T06:13:27.121Z,60
2023-02-12T06:14:26.985Z,60
2023-02-12T06:15:27.104Z,51
2023-02-12T06:16:27.405Z,68
2023-02-12T06:17:26.447Z,70
2023-02-12T06:18:26.516Z,67
2023-02-12T06:19:26.478Z,65
2023-02-12T06:20:27.188Z,65
2023-02-12T06:21:26.639Z,60
2023-02-12T06:22:27.052Z,63
2023-02-12T06:23:26.463Z,61
2023-02-12T06:24:26.428Z,67
2023-02-12T06:25:26.475Z,64
2023-02-12T06:26:26.479Z,67
2023-02-12T06:27:26.448Z,65
2023-02-12T06:28:26.628Z,65
2023-02-12T06:29:27.454Z,70
2023-02-12T06:30:26.422Z,65
2023-02-12T06:31:27.024Z,64
2023-02-12T06:32:26.487Z,58
2023-02-12T06:33:26.465Z,54
2023-02-12T06:34:26.696Z,62
2023-02-12T06:35:26.437Z,52
2023-02-12T06:36:26.469Z,63
2023-02-12T06:37:27.008Z,58
2023-02-12T06:38:27.415Z,62
2023-02-12T06:39:26.992Z,70
2023-02-12T06:40:27.167Z,66
2023-02-12T06:41:26.462Z,61
2023-02-12T06:42:26.452Z,62
2023-02-12T06:43:26.430Z,64
2023-02-12T06:44:26.447Z,57
2023-02-12T06:45:26.428Z,67
2023-02-12T06:46:26.506Z,68
2023-02-12T06:47:26.517Z,71
2023-02-12T06:48:26.428Z,70
2023-02-12T06:49:26.866Z,69
2023-02-12T06:50:27.481Z,70
2023-02-12T06:51:26.457Z,64
2023-02-12T06:52:26.444Z,65
2023-02-12T06:53:27.209Z,69
2023-02-12T06:54:26.485Z,63
2023-02-12T06:55:26.771Z,70
2023-02-12T06:56:27.162Z,66
2023-02-12T06:57:27.265Z,72
2023-02-12T06:58:26.503Z,60
2023-02-12T06:59:26.442Z,64
2023-02-12T07:00:26.497Z,64
2023-02-12T07:01:26.546Z,65
2023-02-12T07:02:26.483Z,69
2023-02-12T07:03:25.263Z,61
2023-02-12T07:04:26.445Z,67
2023-02-12T07:05:26.417Z,63
2023-02-12T07:06:26.757Z,63
2023-02-12T07:07:26.449Z,60
2023-02-12T07:08:26.445Z,64
2023-02-12T07:09:26.721Z,66
2023-02-12T07:10:27.021Z,68
2023-02-12T07:11:27.081Z,64
2023-02-12T07:12:26.454Z,68
2023-02-12T07:13:26.432Z,67
2023-02-12T07:14:27.052Z,70
2023-02-12T07:15:26.435Z,69
2023-02-12T07:16:26.587Z,66
2023-02-12T07:17:27.113Z,68
2023-02-12T07:18:26.460Z,67
2023-02-12T07:19:26.799Z,65
2023-02-12T07:20:26.442Z,65
2023-02-12T07:21:26.980Z,64
2023-02-12T07:22:26.445Z,61
2023-02-12T07:23:26.509Z,63
2023-02-12T07:24:26.733Z,61
2023-02-12T07:25:25.590Z,64
2023-02-12T07:26:26.604Z,65
2023-02-12T07:27:26.449Z,66
2023-02-12T07:28:26.516Z,59
2023-02-12T07:29:26.444Z,64
2023-02-12T07:30:26.488Z,58
2023-02-12T07:31:26.774Z,72
2023-02-12T07:32:26.854Z,68
2023-02-12T07:33:26.442Z,64
2023-02-12T07:34:26.447Z,68
2023-02-12T07:35:26.450Z,64
2023-02-12T07:36:26.467Z,70
2023-02-12T07:37:26.759Z,69
2023-02-12T07:38:27.239Z,75
2023-02-12T07:39:27.345Z,68
2023-02-12T07:40:26.442Z,67
2023-02-12T07:41:27.149Z,71
2023-02-12T07:42:26.445Z,72
2023-02-12T07:43:26.437Z,73
2023-02-12T07:44:26.518Z,74
2023-02-12T07:45:26.882Z,73
2023-02-12T07:46:27.388Z,76
2023-02-12T07:47:26.448Z,69
2023-02-12T07:48:26.495Z,70
2023-02-12T07:49:26.776Z,70
2023-02-12T07:50:26.453Z,70
2023-02-12T07:51:26.454Z,81
2023-02-12T07:52:26.525Z,71
2023-02-12T07:53:26.484Z,70
2023-02-12T07:54:26.635Z,75
2023-02-12T07:55:26.538Z,70
2023-02-12T07:56:26.801Z,77
2023-02-12T07:57:26.700Z,72
2023-02-12T07:58:27.015Z,84
2023-02-12T07:59:26.552Z,80
2023-02-12T08:00:26.474Z,80
2023-02-12T08:01:26.575Z,69
2023-02-12T08:02:26.582Z,79
2023-02-12T08:03:26.435Z,73
2023-02-12T08:04:26.970Z,73
2023-02-12T08:05:26.870Z,81
2023-02-12T08:06:27.267Z,71
2023-02-12T08:07:26.482Z,79
2023-02-12T08:08:26.457Z,76
2023-02-12T08:09:26.629Z,78
2023-02-12T08:10:27.254Z,81
2023-02-12T08:11:27.024Z,73
2023-02-12T08:12:27.003Z,79
2023-02-12T08:13:26.504Z,79
2023-02-12T08:14:26.497Z,69
2023-02-12T08:15:26.896Z,78
2023-02-12T08:16:26.524Z,78
2023-02-12T08:17:27.091Z,74
2023-02-12T08:18:27.219Z,67
2023-02-12T08:19:27.098Z,77
2023-02-12T08:20:26.980Z,67
2023-02-12T08:21:27.186Z,69
2023-02-12T08:22:26.430Z,72
2023-02-12T08:23:26.440Z,71
2023-02-12T08:24:26.458Z,70
2023-02-12T08:25:26.438Z,63
2023-02-12T08:26:27.246Z,71
2023-02-12T08:27:26.713Z,63
2023-02-12T08:28:26.941Z,71
2023-02-12T08:29:27.097Z,70
2023-02-12T08:30:27.123Z,67
2023-02-12T08:31:26.647Z,68
2023-02-12T08:32:26.951Z,67
2023-02-12T08:33:26.466Z,72
2023-02-12T08:34:26.856Z,81
2023-02-12T08:35:27.167Z,81
2023-02-12T08:36:27.437Z,74
2023-02-12T08:37:26.438Z,72
2023-02-12T08:38:26.502Z,69
2023-02-12T08:39:26.677Z,76
2023-02-12T08:40:26.953Z,71
2023-02-12T08:41:26.458Z,78
2023-02-12T08:42:27.252Z,81
2023-02-12T08:43:27.114Z,78
2023-02-12T08:44:26.443Z,82
2023-02-12T08:45:26.440Z,85
2023-02-12T08:46:26.526Z,91
2023-02-12T08:47:26.441Z,82
2023-02-12T08:48:26.438Z,95
2023-02-12T08:49:26.853Z,98
2023-02-12T08:50:26.799Z,103
2023-02-12T08:51:26.500Z,91
2023-02-12T08:52:27.010Z,95
2023-02-12T08:53:26.453Z,94
2023-02-12T08:54:25.795Z,92
2023-02-12T08:55:26.427Z,104
2023-02-12T08:56:26.446Z,101
2023-02-12T08:57:26.851Z,96
2023-02-12T08:58:26.481Z,96
2023-02-12T08:59:26.558Z,102
2023-02-12T09:00:26.445Z,91
2023-02-12T09:01:26.494Z,81
2023-02-12T09:02:26.553Z,84
2023-02-12T09:03:26.533Z,80
2023-02-12T09:04:26.465Z,82
2023-02-12T09:05:26.716Z,78
2023-02-12T09:06:27.288Z,76
2023-02-12T09:07:26.425Z,76
2023-02-12T09:08:26.437Z,79
2023-02-12T09:09:26.429Z,78
2023-02-12T09:10:27.001Z,77
2023-02-12T09:11:26.743Z,75
2023-02-12T09:12:27.200Z,76
2023-02-12T09:13:26.657Z,83
2023-02-12T09:14:26.446Z,80
2023-02-12T09:15:26.461Z,84
2023-02-12T09:16:27.181Z,76
2023-02-12T09:17:25.797Z,80
2023-02-12T09:18:28.281Z,75
2023-02-12T09:19:26.839Z,87
2023-02-12T09:20:26.946Z,84
2023-02-12T09:21:27.300Z,79
2023-02-12T09:22:27.112Z,68
2023-02-12T09:23:26.456Z,81
2023-02-12T09:24:26.685Z,71
2023-02-12T09:25:26.508Z,75
2023-02-12T09:26:26.510Z,73
2023-02-12T09:27:29.701Z,73
2023-02-12T09:28:26.526Z,77
2023-02-12T09:29:26.443Z,72
2023-02-12T09:30:26.488Z,70
2023-02-12T09:31:27.180Z,68
2023-02-12T09:32:26.455Z,66
2023-02-12T09:33:26.463Z,62
2023-02-12T09:34:26.903Z,64
2023-02-12T09:35:26.800Z,64
2023-02-12T09:36:26.476Z,66
2023-02-12T09:37:27.108Z,61
2023-02-12T09:38:26.856Z,63
2023-02-12T09:39:27.156Z,61
2023-02-12T09:40:26.612Z,61
2023-02-12T09:41:25.637Z,64
2023-02-12T09:42:27.079Z,56
2023-02-12T09:43:26.432Z,54
2023-02-12T09:44:26.534Z,57
2023-02-12T09:45:27.132Z,57
2023-02-12T09:46:27.200Z,54
2023-02-12T09:47:26.676Z,55
2023-02-12T09:48:26.984Z,53
2023-02-12T09:49:27.215Z,56
2023-02-12T09:50:27.337Z,50
2023-02-12T09:51:26.475Z,54
2023-02-12T09:52:26.440Z,56
2023-02-12T09:53:27.215Z,53
2023-02-12T09:54:27.005Z,60
2023-02-12T09:55:27.215Z,54
2023-02-12T09:56:27.391Z,53
2023-02-12T09:57:27.059Z,55
2023-02-12T09:58:26.446Z,55
2023-02-12T09:59:26.449Z,54
2023-02-12T10:00:27.018Z,46
2023-02-12T10:01:26.534Z,55
2023-02-12T10:02:26.709Z,53
2023-02-12T10:04:26.753Z,50
2023-02-12T10:05:27.093Z,54
2023-02-12T10:06:27.258Z,50
2023-02-12T10:07:26.532Z,54
2023-02-12T10:08:27.122Z,50
2023-02-12T10:09:26.529Z,49
2023-02-12T10:10:27.125Z,52
2023-02-12T10:11:27.036Z,44
2023-02-12T10:12:26.627Z,50
2023-02-12T10:13:26.487Z,49
2023-02-12T10:14:27.003Z,47
2023-02-12T10:15:27.080Z,49
2023-02-12T10:16:26.432Z,51
2023-02-12T10:17:26.798Z,48
2023-02-12T10:18:26.989Z,48
2023-02-12T10:19:26.441Z,49
2023-02-12T10:20:26.438Z,42
2023-02-12T10:21:27.089Z,42
2023-02-12T10:22:27.241Z,44
2023-02-12T10:23:27.177Z,47
2023-02-12T10:24:26.627Z,45
2023-02-12T10:25:26.537Z,45
2023-02-12T10:26:27.190Z,44
2023-02-12T10:27:26.489Z,39
2023-02-12T10:28:26.580Z,41
2023-02-12T10:29:26.443Z,43
2023-02-12T10:30:26.462Z,45
2023-02-12T10:31:28.496Z,45
2023-02-12T10:32:26.497Z,47
2023-02-12T10:33:26.435Z,45
2023-02-12T10:34:27.135Z,45
2023-02-12T10:35:26.921Z,46
2023-02-12T10:36:27.406Z,40
2023-02-12T10:37:27.492Z,42
2023-02-12T10:38:26.431Z,46
2023-02-12T10:39:26.512Z,44
2023-02-12T10:40:26.512Z,41
2023-02-12T10:41:26.760Z,43
2023-02-12T10:42:27.190Z,44
2023-02-12T10:43:26.504Z,43
2023-02-12T10:44:27.249Z,39
2023-02-12T10:45:26.445Z,43
2023-02-12T10:46:26.854Z,39
2023-02-12T10:47:26.515Z,41
2023-02-12T10:48:26.904Z,39
2023-02-12T10:49:26.684Z,37
2023-02-12T10:50:26.819Z,38
2023-02-12T10:51:27.050Z,39
2023-02-12T10:52:26.463Z,40
2023-02-12T10:53:26.911Z,38
2023-02-12T10:54:26.501Z,38
2023-02-12T10:55:26.963Z,40
2023-02-12T10:56:26.782Z,41
2023-02-12T10:57:27.009Z,34
2023-02-12T10:58:26.424Z,37
2023-02-12T10:59:26.428Z,39
2023-02-12T11:00:26.529Z,38
2023-02-12T11:01:27.140Z,40
2023-02-12T11:02:26.474Z,41
2023-02-12T11:03:27.048Z,40
2023-02-12T11:04:26.431Z,38
2023-02-12T11:05:26.967Z,36
2023-02-12T11:06:26.844Z,39
2023-02-12T11:07:26.495Z,39
2023-02-12T11:08:25.342Z,41
2023-02-12T11:09:26.685Z,37
2023-02-12T11:11:26.437Z,43
2023-02-12T11:12:27.046Z,34
2023-02-12T11:13:27.147Z,34
2023-02-12T11:14:26.445Z,35
2023-02-12T11:15:26.499Z,48
2023-02-12T11:16:26.518Z,40
2023-02-12T11:17:27.246Z,40
2023-02-12T11:18:27.043Z,39
2023-02-12T11:19:26.434Z,39
2023-02-12T11:20:26.953Z,38
2023-02-12T11:21:26.722Z,37
2023-02-12T11:22:26.826Z,38
2023-02-12T11:23:26.520Z,39
2023-02-12T11:24:26.481Z,46
2023-02-12T11:25:26.658Z,41
2023-02-12T11:26:26.437Z,40
2023-02-12T11:27:26.464Z,36
2023-02-12T11:28:27.401Z,37
2023-02-12T11:29:26.660Z,37
2023-02-12T11:30:26.842Z,54
2023-02-12T11:31:26.566Z,41
2023-02-12T11:32:27.070Z,43
2023-02-12T11:33:26.433Z,40
2023-02-12T11:34:26.855Z,43
2023-02-12T11:35:26.433Z,38
2023-02-12T11:36:26.437Z,34
2023-02-12T11:37:26.486Z,36
2023-02-12T11:38:26.966Z,32
2023-02-12T11:39:26.460Z,42
2023-02-12T11:40:27.469Z,34
2023-02-12T11:41:26.442Z,38
2023-02-12T11:42:26.477Z,36
2023-02-12T11:43:26.444Z,42
2023-02-12T11:44:27.024Z,40
2023-02-12T11:45:26.491Z,40
2023-02-12T11:46:26.564Z,40
2023-02-12T11:47:26.453Z,41
2023-02-12T11:48:27.502Z,38
2023-02-12T11:49:27.194Z,39
2023-02-12T11:50:26.454Z,36
2023-02-12T11:51:26.504Z,39
2023-02-12T11:52:26.511Z,39
2023-02-12T11:53:27.086Z,43
2023-02-12T11:54:26.435Z,37
2023-02-12T11:55:26.457Z,39
2023-02-12T11:56:26.449Z,41
2023-02-12T11:57:27.265Z,37
2023-02-12T11:58:26.562Z,37
2023-02-12T11:59:27.101Z,35
2023-02-12T12:00:26.435Z,40
2023-02-12T12:01:27.121Z,42
2023-02-12T12:02:26.692Z,42
2023-02-12T12:03:26.920Z,41
2023-02-12T12:04:26.521Z,41
2023-02-12T12:05:27.452Z,44
2023-02-12T12:06:27.669Z,40
2023-02-12T12:07:26.632Z,43
2023-02-12T12:08:26.794Z,39
2023-02-12T12:09:26.441Z,36
2023-02-12T12:10:27.102Z,38
2023-02-12T12:11:26.486Z,37
2023-02-12T12:12:26.491Z,41
2023-02-12T12:13:26.786Z,36
2023-02-12T12:14:26.565Z,37
2023-02-12T12:15:25.964Z,35
2023-02-12T12:16:26.558Z,35
2023-02-12T12:17:25.339Z,39
2023-02-12T12:18:26.462Z,36
2023-02-12T12:19:28.986Z,37
2023-02-12T12:20:27.002Z,36
2023-02-12T12:21:26.513Z,38
2023-02-12T12:22:27.094Z,36
2023-02-12T12:23:26.437Z,37
2023-02-12T12:24:26.460Z,37
2023-02-12T12:25:26.916Z,38
2023-02-12T12:26:26.480Z,34
2023-02-12T12:27:27.103Z,34
2023-02-12T12:28:27.135Z,38
2023-02-12T12:29:26.812Z,39
2023-02-12T12:30:26.478Z,36
2023-02-12T12:31:26.445Z,35
2023-02-12T12:32:26.450Z,37
2023-02-12T12:33:26.448Z,36
2023-02-12T12:34:26.438Z,39
2023-02-12T12:35:26.499Z,33
2023-02-12T12:36:26.442Z,33
2023-02-12T12:37:26.454Z,30
2023-02-12T12:38:26.447Z,32
2023-02-12T12:39:26.530Z,30
2023-02-12T12:40:26.437Z,32
2023-02-12T12:41:26.492Z,33
2023-02-12T12:42:28.409Z,30
2023-02-12T12:43:26.848Z,31
2023-02-12T12:44:26.444Z,33
2023-02-12T12:45:26.435Z,33
2023-02-12T12:46:26.505Z,33
2023-02-12T12:47:26.438Z,26
2023-02-12T12:48:26.452Z,30
2023-02-12T12:49:26.514Z,30
2023-02-12T12:50:27.330Z,29
2023-02-12T12:51:26.477Z,29
2023-02-12T12:52:26.608Z,31
2023-02-12T12:53:26.453Z,35
2023-02-12T12:54:27.195Z,27
2023-02-12T12:55:27.177Z,30
2023-02-12T12:56:27.049Z,26
2023-02-12T12:57:26.548Z,31
2023-02-12T12:58:26.938Z,30
2023-02-12T12:59:26.961Z,27
2023-02-12T13:00:26.826Z,29
2023-02-12T13:01:27.031Z,30
2023-02-12T13:02:26.528Z,30
2023-02-12T13:03:26.917Z,26
2023-02-12T13:04:26.512Z,28
2023-02-12T13:05:26.784Z,27
2023-02-12T13:06:26.448Z,31
2023-02-12T13:07:26.464Z,26
2023-02-12T13:08:26.573Z,29
2023-02-12T13:09:26.448Z,30
2023-02-12T13:10:26.445Z,26
2023-02-12T13:11:27.704Z,26
2023-02-12T13:12:26.740Z,25
2023-02-12T13:13:26.439Z,24
2023-02-12T13:14:26.791Z,30
2023-02-12T13:15:27.282Z,28
2023-02-12T13:16:26.976Z,28
2023-02-12T13:17:26.468Z,27
2023-02-12T13:18:26.520Z,26
2023-02-12T13:19:26.986Z,27
2023-02-12T13:20:26.979Z,28
2023-02-12T13:21:26.453Z,29
2023-02-12T13:22:26.574Z,28
2023-02-12T13:23:25.289Z,27
2023-02-12T13:25:26.460Z,26
2023-02-12T13:26:26.514Z,28
2023-02-12T13:27:26.699Z,29
2023-02-12T13:28:27.357Z,29
2023-02-12T13:29:26.559Z,27
2023-02-12T13:30:26.441Z,28
2023-02-12T13:31:34.542Z,27
2023-02-12T13:32:27.338Z,26
2023-02-12T13:33:26.492Z,24
2023-02-12T13:34:26.456Z,24
2023-02-12T13:35:26.547Z,25
2023-02-12T13:36:26.453Z,27
2023-02-12T13:37:26.938Z,29
2023-02-12T13:38:26.453Z,29
2023-02-12T13:39:26.488Z,27
2023-02-12T13:40:26.493Z,27
2023-02-12T13:41:26.516Z,27
2023-02-12T13:42:27.063Z,30
2023-02-12T13:43:26.503Z,26
2023-02-12T13:44:26.848Z,27
2023-02-12T13:45:26.562Z,29
2023-02-12T13:46:26.489Z,26
2023-02-12T13:47:27.102Z,25
2023-02-12T13:48:27.046Z,24
2023-02-12T13:49:26.449Z,26
2023-02-12T13:50:26.456Z,22
2023-02-12T13:51:26.453Z,22
2023-02-12T13:52:26.443Z,27
2023-02-12T13:53:26.851Z,26
2023-02-12T13:54:27.091Z,22
2023-02-12T13:55:26.555Z,20
2023-02-12T13:56:27.937Z,22
2023-02-12T13:57:27.251Z,24
2023-02-12T13:58:26.962Z,23
2023-02-12T13:59:26.695Z,21
2023-02-12T14:00:26.452Z,22
2023-02-12T14:01:26.478Z,23
2023-02-12T14:02:27.329Z,22
2023-02-12T14:03:26.533Z,25
2023-02-12T14:04:26.450Z,23
2023-02-12T14:05:26.694Z,22
2023-02-12T14:06:26.433Z,23
2023-02-12T14:07:27.065Z,23
2023-02-12T14:08:26.471Z,23
2023-02-12T14:09:26.659Z,22
2023-02-12T14:10:26.823Z,22
2023-02-12T14:11:26.909Z,21
2023-02-12T14:12:26.762Z,23
2023-02-12T14:13:27.066Z,21
2023-02-12T14:14:27.087Z,26
2023-02-12T14:15:26.464Z,27
2023-02-12T14:16:26.512Z,26
2023-02-12T14:17:26.507Z,32